Details From TTCP - Tobago/Crown Point Intl
To TTPP - Trinidad/Piarco Intl
Flight Number -
Tags decoded
Created
Modified
Stats Distance 89 nm / 164 km
Max Altitude 0 ft / 0 m
Waypoints 8
Social Downloads 10
Likes 0
Share VATSIM

Download

Looking for another format? Having issues loading an existing format? Contact us
Advertisement - Login to hide

Notes

Requested: TTCP VODAN DEBOP SEBAS OMEGO SHARK LEXOR TALUS R1535 TTPP

Route

TTCP DEBOP SEBAS OMEGO LEXOR TALUS R1535 TTPP

ID Type Via Altitude Latitude Longitude Leg Dist Tot Dist Heading (true) Name
O TTCP APT - 0 ft / 0 m 11.14966˚ -60.83220˚ - 0 nm - Tobago/Crown Point Intl
DEBOP FIX - 0 ft / 0 m 11.13667˚ -60.64834˚ 10 nm 10 nm 94° / 94° -
SEBAS FIX - 0 ft / 0 m 10.68000˚ -61.15333˚ 40 nm 51 nm 227° / 227° -
OMEGO FIX - 0 ft / 0 m 10.67833˚ -61.51833˚ 21 nm 72 nm 270° / 270° -
LEXOR FIX - 0 ft / 0 m 10.59500˚ -61.51833˚ 5 nm 77 nm 180° / 180° -
TALUS FIX - 0 ft / 0 m 10.59500˚ -61.43833˚ 4 nm 82 nm 90° / 90° -
R1535 FIX - 0 ft / 0 m 10.59533˚ -61.35186˚ 5 nm 87 nm 90° / 90° -
O TTPP APT - 0 ft / 0 m 10.59537˚ -61.33724˚ 0 nm 88 nm 90° / 90° Trinidad/Piarco Intl

Altitude Profile

Advertisement - Login to hide

TTCP

Details ICAO TTCP (TAB)
Name Tobago/Crown Point Intl
Region Trinidad and Tobago
Timezone America/Port_of_Spain (UTC-4.0)
Stats Elevation 36 ft / 11 m (AMSL)
Location 11.149660° -60.832196°
Runways 1
Magnetic Variation 15.194° W

METAR

TTCP 171900Z 09012KT 9999 FEW018 30/23 Q1012 NOSIG

Decode

TAF

Not found

Departure Runways

ID Width Length Bearing (true) Bearing (mag) Surface Threshold Offset Overrun Length
11 148 ft / 45 m 8,995 ft / 2,742 m 94.17° 109.36° Asphalt 1,004 ft / 306 m 0 ft / 0 m
29 148 ft / 45 m 8,995 ft / 2,742 m 274.17° 289.36° Asphalt 0 ft / 0 m 299 ft / 91 m

TTPP

Details ICAO TTPP (POS)
Name Trinidad/Piarco Intl
Region Trinidad and Tobago
Timezone America/Port_of_Spain (UTC-4.0)
Stats Elevation 57 ft / 17 m (AMSL)
Location 10.595370° -61.337239°
Runways 1
Magnetic Variation 15.001° W

METAR

TTPP 171900Z 09014KT 9999 SCT016 29/22 Q1011 NOSIG

Decode

TAF

Not found

Destination Runways

ID Width Length Bearing (true) Bearing (mag) Surface Threshold Offset Overrun Length
10 151 ft / 46 m 10,486 ft / 3,196 m 89.83° 104.83° Asphalt 0 ft / 0 m 79 ft / 24 m
28 151 ft / 46 m 10,486 ft / 3,196 m 269.84° 284.84° Asphalt 0 ft / 0 m 184 ft / 56 m

Approach Navaids

Runway Type Ident Frequency Range Bearing (true) Bearing (mag) Slope Elevation
10 Localiser IPOS 109.70 MHz 18 nm / 33 km 89.49° 104.49° - 57 ft / 17 m (AMSL)
10 Glidescope IPOS 109.70 MHz 10 nm / 19 km 89.83° 104.84° 3.00° 57 ft / 17 m (AMSL)
10 DME IPOS 109.70 MHz 18 nm / 33 km - - - 57 ft / 17 m (AMSL)

Popular Alternatives